Time;durP1;ratioP1;P1;durP2;ratioP2;P2;SDS_P1;SDS_P2;PMS_P1;PMS_P2;Temp;Humidity;BMP_temperature;BMP_pressure;BME280_temperature;BME280_humidity;BME280_pressure;Samples;Min_cycle;Max_cycle;Signal;HPM_P1;HPM_P2
2021/06/28 00:01:32;;;;;;;13.18;10.00;;;;;;;22.51;76.84;99958.05;1759106;81;21361;-54
2021/06/28 00:04:38;;;;;;;11.38;9.95;;;;;;;22.48;77.10;99951.61;1758000;81;21945;-54
2021/06/28 00:07:45;;;;;;;14.23;9.75;;;;;;;22.45;77.33;99954.08;1759178;81;21206;-55
2021/06/28 00:10:52;;;;;;;12.90;10.03;;;;;;;22.41;77.47;99958.48;1759265;81;21210;-55
2021/06/28 00:14:00;;;;;;;14.68;10.05;;;;;;;22.37;77.59;99969.89;1759110;81;21258;-54
2021/06/28 00:17:05;;;;;;;12.33;9.55;;;;;;;22.33;77.71;99966.77;1759325;81;21199;-55
2021/06/28 00:20:12;;;;;;;13.53;9.80;;;;;;;22.29;77.76;99968.96;1759311;81;21353;-54
2021/06/28 00:23:18;;;;;;;11.12;9.50;;;;;;;22.27;77.83;99966.98;1759321;81;21392;-54
2021/06/28 00:26:24;;;;;;;12.47;9.98;;;;;;;22.24;77.79;99968.36;1759312;81;21281;-55
2021/06/28 00:29:29;;;;;;;13.78;9.70;;;;;;;22.18;77.78;99963.83;1759371;81;21230;-54
2021/06/28 00:32:35;;;;;;;12.78;9.33;;;;;;;22.12;77.81;99951.77;1759244;80;21194;-54
2021/06/28 00:35:41;;;;;;;11.15;8.93;;;;;;;22.08;77.83;99957.58;1759365;81;21472;-54
2021/06/28 00:38:49;;;;;;;12.73;8.95;;;;;;;22.04;77.84;99950.83;1759390;81;21182;-55
2021/06/28 00:41:55;;;;;;;15.05;9.03;;;;;;;22.02;77.86;99953.02;1759318;81;21222;-54
2021/06/28 00:45:01;;;;;;;10.90;8.33;;;;;;;21.99;77.77;99955.52;1759348;81;21273;-55
2021/06/28 00:48:09;;;;;;;9.55;8.50;;;;;;;21.94;77.73;99954.91;1759125;81;21400;-56
2021/06/28 00:51:14;;;;;;;10.85;8.68;;;;;;;21.88;77.64;99955.09;1759243;81;21376;-54
2021/06/28 00:54:19;;;;;;;14.10;7.97;;;;;;;21.79;77.75;99960.27;1759227;81;21372;-54
2021/06/28 00:57:25;;;;;;;12.50;9.08;;;;;;;21.73;77.86;99965.46;1759211;81;21210;-55
2021/06/28 01:00:31;;;;;;;12.25;8.88;;;;;;;21.67;78.00;99970.68;1759316;81;21230;-54
2021/06/28 01:03:36;;;;;;;10.50;8.55;;;;;;;21.62;78.14;99971.14;1759060;81;21348;-55
2021/06/28 01:06:42;;;;;;;10.20;8.80;;;;;;;21.57;78.31;99977.49;1749921;82;21243;-54
2021/06/28 01:09:47;;;;;;;11.43;8.50;;;;;;;21.51;78.51;99982.70;1774468;81;21248;-54
2021/06/28 01:12:54;;;;;;;12.70;9.10;;;;;;;21.48;78.71;99986.00;1757806;81;21355;-55
2021/06/28 01:16:01;;;;;;;13.03;9.15;;;;;;;21.47;78.80;99995.44;1774521;81;21327;-55
2021/06/28 01:19:05;;;;;;;10.48;8.13;;;;;;;21.45;78.89;99985.13;1757810;81;21335;-55
2021/06/28 01:22:14;;;;;;;9.95;8.55;;;;;;;21.46;78.97;99996.55;1774412;81;21212;-54
2021/06/28 01:25:23;;;;;;;10.25;8.70;;;;;;;21.44;78.97;99997.34;1758276;81;21398;-54
2021/06/28 01:28:27;;;;;;;9.60;8.60;;;;;;;21.46;78.99;99999.88;1774447;81;21216;-55
2021/06/28 01:31:33;;;;;;;10.50;9.10;;;;;;;21.43;78.99;100000.39;1757607;81;21351;-60
2021/06/28 01:34:38;;;;;;;10.10;8.98;;;;;;;21.41;79.05;99999.25;1774405;81;21192;-55
2021/06/28 01:37:45;;;;;;;11.45;9.23;;;;;;;21.41;79.05;100005.36;1757908;81;21356;-57
2021/06/28 01:40:51;;;;;;;10.85;9.58;;;;;;;21.38;79.11;100001.16;1774525;81;21212;-55
2021/06/28 01:43:55;;;;;;;11.12;9.48;;;;;;;21.35;79.24;100008.64;1757807;81;21336;-54
2021/06/28 01:47:01;;;;;;;12.23;9.65;;;;;;;21.30;79.38;100004.91;1774364;81;21262;-54
2021/06/28 01:50:06;;;;;;;22.50;10.23;;;;;;;21.26;79.62;100008.78;1757616;81;21209;-54
2021/06/28 01:53:11;;;;;;;16.23;10.72;;;;;;;21.24;79.85;100012.90;1747519;82;21410;-55
2021/06/28 01:56:18;;;;;;;21.40;12.30;;;;;;;21.22;80.19;100013.16;1748259;81;21406;-54
2021/06/28 01:59:23;;;;;;;14.58;12.80;;;;;;;21.20;80.78;100019.52;1747486;82;21208;-56
2021/06/28 02:02:29;;;;;;;16.15;13.25;;;;;;;21.18;81.31;100021.73;1747522;82;21259;-56
2021/06/28 02:05:39;;;;;;;23.30;14.70;;;;;;;21.18;81.89;100017.56;1745566;81;21346;-56
2021/06/28 02:08:47;;;;;;;19.37;15.03;;;;;;;21.18;82.49;100029.23;1747622;82;21724;-55
2021/06/28 02:11:51;;;;;;;20.27;15.88;;;;;;;21.17;83.05;100030.34;1747440;82;21358;-54
2021/06/28 02:14:57;;;;;;;26.70;16.93;;;;;;;21.20;83.48;100029.27;1747525;82;21343;-55
2021/06/28 02:18:05;;;;;;;20.88;17.25;;;;;;;21.25;83.78;100035.48;1747464;82;21686;-55
2021/06/28 02:21:11;;;;;;;19.20;17.02;;;;;;;21.28;84.01;100039.16;1747582;82;21264;-56
2021/06/28 02:24:17;;;;;;;20.45;17.48;;;;;;;21.31;84.21;100038.64;1747461;82;21394;-55
2021/06/28 02:27:23;;;;;;;22.27;18.40;;;;;;;21.35;84.42;100051.80;1747649;82;21196;-56
2021/06/28 02:30:30;;;;;;;22.95;18.10;;;;;;;21.37;84.45;100038.48;1747450;82;21386;-56
2021/06/28 02:33:37;;;;;;;22.15;19.00;;;;;;;21.40;84.59;100044.08;1747480;82;21271;-57
2021/06/28 02:36:44;;;;;;;23.47;19.15;;;;;;;21.45;84.57;100056.69;1747174;82;21232;-54
2021/06/28 02:39:48;;;;;;;25.80;18.73;;;;;;;21.46;84.44;100052.80;1747489;82;21386;-55
2021/06/28 02:42:54;;;;;;;22.45;19.48;;;;;;;21.45;84.50;100053.38;1747513;82;21344;-57
2021/06/28 02:46:00;;;;;;;24.65;20.30;;;;;;;21.49;84.58;100050.36;1747467;82;21240;-56
2021/06/28 02:49:05;;;;;;;23.83;20.02;;;;;;;21.56;84.60;100045.47;1747513;82;21923;-57
2021/06/28 02:52:13;;;;;;;25.57;21.37;;;;;;;21.65;84.40;100061.18;1747369;82;21429;-54
2021/06/28 02:55:19;;;;;;;23.75;20.20;;;;;;;21.68;84.22;100050.91;1747459;82;21433;-54
2021/06/28 02:58:25;;;;;;;25.20;20.77;;;;;;;21.70;84.16;100045.39;1747604;82;21385;-56
2021/06/28 03:01:35;;;;;;;21.27;18.17;;;;;;;21.75;83.97;100053.87;1747502;82;21414;-55
2021/06/28 03:04:40;;;;;;;22.35;19.95;;;;;;;21.78;83.91;100046.38;1747507;82;21425;-55
2021/06/28 03:07:45;;;;;;;23.55;19.95;;;;;;;21.88;83.77;100045.69;1745381;82;21346;-55
2021/06/28 03:10:50;;;;;;;21.12;18.87;;;;;;;21.95;83.51;100051.90;1747629;82;21370;-54
2021/06/28 03:14:18;;;;;;;25.00;20.62;;;;;;;22.00;83.26;100055.61;1747585;82;21232;-54
2021/06/28 03:17:23;;;;;;;22.45;19.87;;;;;;;22.03;82.93;100055.09;1717919;83;21310;-54
2021/06/28 03:20:30;;;;;;;25.12;21.42;;;;;;;22.04;82.69;100063.73;1725910;83;21752;-54
2021/06/28 03:23:35;;;;;;;24.80;21.12;;;;;;;22.04;82.53;100059.56;1689230;84;21228;-55
2021/06/28 03:26:40;;;;;;;23.45;20.65;;;;;;;22.04;82.41;100062.34;1725989;83;21970;-55
2021/06/28 03:29:46;;;;;;;23.60;20.17;;;;;;;22.07;82.42;100059.61;1689310;84;21262;-56
2021/06/28 03:32:52;;;;;;;25.37;20.20;;;;;;;22.09;82.31;100059.62;1725321;83;21441;-58
2021/06/28 03:35:58;;;;;;;22.07;19.57;;;;;;;22.14;82.15;100055.52;1683766;84;21364;-56
2021/06/28 03:39:03;;;;;;;23.52;20.37;;;;;;;22.18;81.99;100051.67;1717193;83;21216;-56
2021/06/28 03:42:09;;;;;;;27.80;21.55;;;;;;;22.23;81.91;100052.56;1717589;83;21196;-56
2021/06/28 03:45:17;;;;;;;26.37;20.95;;;;;;;22.30;81.72;100052.91;1717527;83;21760;-56
2021/06/28 03:48:22;;;;;;;24.67;19.80;;;;;;;22.34;81.35;100046.58;1717903;83;21736;-55
2021/06/28 03:51:28;;;;;;;23.12;20.62;;;;;;;22.36;81.07;100051.90;1717424;83;21254;-56
2021/06/28 03:54:33;;;;;;;22.10;19.73;;;;;;;22.37;80.80;100050.24;1718024;83;21224;-57
2021/06/28 03:57:39;;;;;;;25.90;20.12;;;;;;;22.40;80.75;100047.47;1717770;83;21278;-56
2021/06/28 04:00:49;;;;;;;23.35;19.87;;;;;;;22.46;80.58;100051.45;1718026;83;21295;-55
2021/06/28 04:03:54;;;;;;;25.32;19.98;;;;;;;22.52;80.40;100046.80;1717950;83;21224;-56
2021/06/28 04:07:00;;;;;;;21.70;19.40;;;;;;;22.61;80.06;100051.65;1718028;83;21251;-56
2021/06/28 04:10:06;;;;;;;23.57;19.27;;;;;;;22.71;79.75;100050.91;1718185;83;21248;-55
2021/06/28 04:13:11;;;;;;;26.15;23.20;;;;;;;22.84;79.26;100054.15;1717825;83;21203;-58
2021/06/28 04:16:18;;;;;;;25.43;19.48;;;;;;;22.96;78.72;100055.39;1717390;83;21235;-56
2021/06/28 04:19:24;;;;;;;24.15;21.55;;;;;;;23.01;77.81;100054.02;1722949;83;21208;-55
2021/06/28 04:22:32;;;;;;;21.55;19.10;;;;;;;23.02;77.35;100059.91;1722918;83;21334;-56
2021/06/28 04:25:42;;;;;;;25.55;22.67;;;;;;;23.00;77.29;100056.53;1722306;83;21252;-55
2021/06/28 04:28:47;;;;;;;29.23;20.02;;;;;;;22.99;77.23;100057.08;1722920;83;21346;-55
2021/06/28 04:31:56;;;;;;;27.48;21.85;;;;;;;22.94;77.26;100064.58;1722823;83;21288;-57
2021/06/28 04:35:01;;;;;;;24.35;21.55;;;;;;;22.89;77.53;100061.19;1722986;83;21219;-56
2021/06/28 04:38:06;;;;;;;27.67;21.87;;;;;;;22.90;77.62;100060.61;1722944;83;21338;-55
2021/06/28 04:41:11;;;;;;;25.92;21.95;;;;;;;22.92;77.57;100063.98;1722900;83;21349;-55
2021/06/28 04:44:16;;;;;;;24.10;20.10;;;;;;;22.99;77.45;100070.22;1722511;83;21342;-55
2021/06/28 04:47:22;;;;;;;22.35;17.73;;;;;;;23.06;77.08;100073.63;1722759;83;21212;-54
2021/06/28 04:50:28;;;;;;;20.37;18.23;;;;;;;23.09;76.57;100074.48;1722934;83;21373;-55
2021/06/28 04:53:34;;;;;;;21.42;17.73;;;;;;;23.13;76.18;100074.27;1722512;83;21192;-55
2021/06/28 04:56:40;;;;;;;22.48;18.90;;;;;;;23.13;75.62;100075.66;1722403;83;21287;-56
2021/06/28 04:59:45;;;;;;;23.38;17.52;;;;;;;23.11;75.22;100080.66;1722165;83;21354;-56
2021/06/28 05:02:52;;;;;;;24.45;17.60;;;;;;;23.03;74.90;100079.19;1722321;83;21247;-56
2021/06/28 05:05:57;;;;;;;19.20;16.90;;;;;;;22.95;75.05;100076.88;1722106;83;21227;-58
2021/06/28 05:09:03;;;;;;;17.70;14.68;;;;;;;22.92;75.15;100084.93;1721678;83;21270;-56
2021/06/28 05:12:09;;;;;;;19.25;15.40;;;;;;;22.93;74.94;100085.23;1722013;82;21358;-56
2021/06/28 05:15:15;;;;;;;16.93;14.43;;;;;;;22.98;74.51;100081.08;1715466;82;21844;-55
2021/06/28 05:18:20;;;;;;;20.52;14.80;;;;;;;23.11;74.10;100082.05;1717439;83;21224;-56
2021/06/28 05:21:26;;;;;;;18.75;15.40;;;;;;;23.28;73.58;100089.78;1723167;81;21397;-56
2021/06/28 05:24:31;;;;;;;20.52;14.78;;;;;;;23.38;72.99;100088.48;1704914;83;21397;-55
2021/06/28 05:27:37;;;;;;;19.77;16.57;;;;;;;23.46;72.42;100090.25;1730448;82;21435;-55
2021/06/28 05:30:43;;;;;;;22.32;16.57;;;;;;;23.54;72.25;100087.50;1724257;82;21268;-55
2021/06/28 05:33:50;;;;;;;18.00;14.05;;;;;;;23.63;71.79;100088.14;1714812;82;21355;-55
2021/06/28 05:36:55;;;;;;;16.62;12.98;;;;;;;23.67;71.35;100082.86;1736029;82;21232;-55
2021/06/28 05:40:01;;;;;;;20.77;14.15;;;;;;;23.76;70.93;100081.78;1718610;82;21381;-57
2021/06/28 05:43:08;;;;;;;16.12;13.40;;;;;;;23.82;70.49;100092.73;1711548;84;21219;-55
2021/06/28 05:46:13;;;;;;;15.38;13.55;;;;;;;23.94;70.54;100100.39;1711567;84;21235;-55
2021/06/28 05:49:18;;;;;;;14.30;12.25;;;;;;;24.10;70.42;100096.58;1711792;84;21255;-55
2021/06/28 05:52:25;;;;;;;13.40;11.45;;;;;;;24.28;68.97;100098.93;1712305;84;21355;-55
2021/06/28 05:55:31;;;;;;;14.03;11.28;;;;;;;24.45;68.81;100097.34;1711222;84;21208;-54
2021/06/28 05:58:39;;;;;;;13.03;11.63;;;;;;;24.63;68.28;100094.89;1712231;84;21378;-54
2021/06/28 06:01:45;;;;;;;14.78;11.95;;;;;;;24.68;67.53;100090.75;1712691;84;21398;-55
2021/06/28 06:04:51;;;;;;;12.28;11.00;;;;;;;24.72;66.94;100096.06;1711391;84;21219;-55
2021/06/28 06:07:57;;;;;;;13.78;11.08;;;;;;;24.79;66.90;100096.66;1712276;84;21251;-53
2021/06/28 06:11:04;;;;;;;12.95;10.85;;;;;;;24.94;66.80;100107.89;1712609;84;21374;-54
2021/06/28 06:14:10;;;;;;;15.72;12.05;;;;;;;25.15;66.37;100101.77;1712114;84;21334;-54
2021/06/28 06:17:15;;;;;;;13.95;11.57;;;;;;;25.35;65.45;100109.41;1712522;84;21717;-54
2021/06/28 06:20:22;;;;;;;13.10;10.08;;;;;;;25.43;65.14;100111.11;1714172;80;21227;-56
2021/06/28 06:23:28;;;;;;;12.43;11.03;;;;;;;25.50;64.64;100103.24;1712285;84;21369;-54
2021/06/28 06:26:34;;;;;;;15.88;11.48;;;;;;;25.56;64.27;100108.30;1711881;84;21256;-55
2021/06/28 06:29:41;;;;;;;14.70;11.00;;;;;;;25.61;64.06;100107.73;1710957;84;21239;-54
2021/06/28 06:32:46;;;;;;;15.30;11.30;;;;;;;25.72;64.19;100103.80;1710717;84;21743;-56
2021/06/28 06:35:51;;;;;;;12.93;11.50;;;;;;;25.82;63.73;100112.21;1711817;84;21415;-55
2021/06/28 06:38:56;;;;;;;14.73;10.98;;;;;;;25.72;63.83;100123.42;1711655;84;21268;-55
2021/06/28 06:42:03;;;;;;;16.45;13.50;;;;;;;25.62;63.57;100131.02;1712741;84;21358;-56
2021/06/28 06:45:09;;;;;;;15.28;13.00;;;;;;;25.52;63.87;100124.84;1712300;84;21700;-56
2021/06/28 06:48:16;;;;;;;17.42;14.70;;;;;;;25.52;64.51;100132.40;1712415;84;21389;-56
2021/06/28 06:51:23;;;;;;;16.87;13.55;;;;;;;25.65;64.98;100140.26;1712487;83;21831;-53
2021/06/28 06:54:28;;;;;;;16.90;13.70;;;;;;;25.75;64.57;100139.69;1711039;82;21208;-56
2021/06/28 06:57:34;;;;;;;13.83;11.70;;;;;;;25.81;64.10;100128.77;1691682;83;21216;-54
2021/06/28 07:00:39;;;;;;;14.23;12.43;;;;;;;25.86;63.76;100142.77;1716098;83;21230;-55
2021/06/28 07:03:46;;;;;;;14.38;11.90;;;;;;;25.84;63.40;100137.17;1716639;83;21827;-55
2021/06/28 07:06:52;;;;;;;13.88;12.47;;;;;;;25.76;62.96;100142.80;1716704;83;21244;-54
2021/06/28 07:09:59;;;;;;;13.43;12.03;;;;;;;25.62;63.14;100147.84;1716004;83;21231;-55
2021/06/28 07:13:07;;;;;;;13.58;12.18;;;;;;;25.47;63.75;100150.06;1716052;83;21252;-56
2021/06/28 07:16:11;;;;;;;12.13;10.88;;;;;;;25.45;64.10;100147.27;1707072;83;21303;-55
2021/06/28 07:19:17;;;;;;;16.30;11.50;;;;;;;25.50;64.09;100147.28;1685899;80;21358;-55
2021/06/28 07:22:24;;;;;;;12.35;10.98;;;;;;;25.55;63.56;100150.91;1711355;83;21223;-56
2021/06/28 07:25:30;;;;;;;12.18;11.00;;;;;;;25.59;63.83;100155.41;1711672;83;21273;-56
2021/06/28 07:28:36;;;;;;;12.10;10.20;;;;;;;25.64;63.86;100156.81;1712483;83;21232;-56
2021/06/28 07:31:42;;;;;;;11.78;9.25;;;;;;;25.61;63.57;100158.20;1713910;83;21219;-55
2021/06/28 07:34:48;;;;;;;9.68;8.15;;;;;;;25.59;63.68;100154.01;1712219;83;21208;-55
2021/06/28 07:37:53;;;;;;;8.30;7.50;;;;;;;25.65;62.58;100156.53;1712079;83;21243;-56
2021/06/28 07:40:59;;;;;;;13.18;9.75;;;;;;;25.79;61.84;100154.00;1713010;83;21394;-55
2021/06/28 07:44:08;;;;;;;9.05;8.10;;;;;;;25.90;61.48;100144.45;1714034;83;21894;-55
2021/06/28 07:47:17;;;;;;;11.70;8.88;;;;;;;26.10;61.49;100154.31;1713462;83;21215;-56
2021/06/28 07:50:24;;;;;;;9.13;8.08;;;;;;;26.19;61.42;100152.05;1713060;83;21236;-55
2021/06/28 07:53:30;;;;;;;9.03;7.87;;;;;;;26.33;60.91;100162.11;1713994;83;21279;-57
2021/06/28 07:56:35;;;;;;;10.78;8.48;;;;;;;26.43;60.33;100155.08;1707266;83;21238;-56
2021/06/28 07:59:41;;;;;;;10.90;8.60;;;;;;;26.51;60.12;100158.70;1687581;84;21243;-55
2021/06/28 08:02:49;;;;;;;9.58;8.68;;;;;;;26.63;59.98;100162.02;1690755;85;21230;-55
2021/06/28 08:05:54;;;;;;;13.58;9.60;;;;;;;26.67;59.73;100154.72;1691098;85;21784;-54
2021/06/28 08:09:01;;;;;;;9.70;8.38;;;;;;;26.71;59.69;100164.27;1712955;83;21258;-55
2021/06/28 08:12:06;;;;;;;10.93;8.53;;;;;;;26.68;59.10;100169.06;1713088;83;21196;-55
2021/06/28 08:15:15;;;;;;;10.82;8.68;;;;;;;26.64;59.38;100160.06;1712674;83;21308;-54
2021/06/28 08:18:20;;;;;;;11.33;9.20;;;;;;;26.72;59.15;100168.75;1690351;85;21250;-56
2021/06/28 08:21:26;;;;;;;16.07;8.90;;;;;;;26.71;59.19;100168.48;1701408;83;21249;-54
2021/06/28 08:24:31;;;;;;;8.40;7.53;;;;;;;26.73;59.23;100177.48;1719915;83;21251;-55
2021/06/28 08:27:37;;;;;;;10.40;8.25;;;;;;;26.71;58.60;100173.25;1721716;83;21589;-55
2021/06/28 08:30:43;;;;;;;9.45;8.35;;;;;;;26.60;58.17;100178.59;1719439;83;21389;-55
2021/06/28 08:33:49;;;;;;;10.20;8.98;;;;;;;26.56;58.65;100177.50;1723031;83;21373;-55
2021/06/28 08:36:56;;;;;;;11.15;8.78;;;;;;;26.71;58.93;100179.72;1720377;83;21343;-55
2021/06/28 08:40:02;;;;;;;12.98;8.73;;;;;;;26.92;59.21;100171.50;1722961;83;21366;-54
2021/06/28 08:43:07;;;;;;;8.05;7.22;;;;;;;27.06;58.83;100175.91;1719912;83;21351;-55
2021/06/28 08:46:15;;;;;;;11.80;8.20;;;;;;;27.06;57.42;100187.16;1722664;83;21318;-55
2021/06/28 08:49:21;;;;;;;9.08;8.03;;;;;;;27.18;57.26;100181.47;1720785;83;21266;-58
2021/06/28 08:52:26;;;;;;;9.95;7.58;;;;;;;27.27;56.81;100192.99;1722834;83;21216;-55
2021/06/28 08:55:33;;;;;;;10.90;8.23;;;;;;;27.24;56.96;100193.54;1716317;82;21204;-56
2021/06/28 08:58:38;;;;;;;15.35;9.75;;;;;;;27.19;56.99;100199.19;1718922;83;21267;-57
2021/06/28 09:01:45;;;;;;;8.58;7.05;;;;;;;27.00;57.02;100201.81;1719514;83;21445;-56
2021/06/28 09:05:11;;;;;;;8.83;7.05;;;;;;;26.79;56.70;100194.58;1719639;83;21211;-55
2021/06/28 09:08:23;;;;;;;9.85;7.65;;;;;;;26.88;57.05;100190.05;1720119;83;21366;-55
2021/06/28 09:11:28;;;;;;;20.05;12.00;;;;;;;27.00;57.50;100193.94;1715937;82;21267;-55
2021/06/28 09:14:34;;;;;;;17.12;11.10;;;;;;;27.13;57.55;100191.33;1722067;83;21215;-55
2021/06/28 09:17:44;;;;;;;15.15;10.75;;;;;;;27.18;55.92;100202.55;1713091;82;21198;-54
2021/06/28 09:20:49;;;;;;;8.83;6.78;;;;;;;27.24;56.35;100190.73;1714517;83;21216;-55
2021/06/28 09:23:54;;;;;;;9.80;7.22;;;;;;;27.33;55.92;100191.27;1714189;82;21393;-57
2021/06/28 09:27:00;;;;;;;8.15;7.17;;;;;;;27.50;55.73;100186.64;1714596;83;21283;-58
2021/06/28 09:30:05;;;;;;;10.48;7.08;;;;;;;27.55;56.13;100193.09;1715000;83;21278;-56
2021/06/28 09:33:14;;;;;;;8.75;7.58;;;;;;;27.50;55.84;100190.87;1715036;83;21291;-56
2021/06/28 09:36:27;;;;;;;9.65;7.35;;;;;;;27.57;55.13;100185.77;1715068;83;21306;-56
2021/06/28 09:39:43;;;;;;;12.33;6.95;;;;;;;27.59;54.91;100192.77;1683953;85;21236;-54
2021/06/28 09:42:48;;;;;;;9.88;7.15;;;;;;;27.58;54.99;100212.20;1693860;84;21366;-54
2021/06/28 09:45:57;;;;;;;11.35;7.22;;;;;;;27.52;54.33;100195.64;1691428;84;21440;-55
2021/06/28 09:49:04;;;;;;;8.28;6.47;;;;;;;27.63;54.59;100199.51;1719753;81;21212;-54
2021/06/28 09:52:11;;;;;;;11.22;7.08;;;;;;;27.85;53.89;100210.31;1721309;83;21421;-55
2021/06/28 09:55:39;;;;;;;12.68;7.33;;;;;;;27.86;54.14;100202.13;1731239;81;21405;-55
2021/06/28 09:58:45;;;;;;;8.28;7.08;;;;;;;27.80;54.49;100204.72;1721936;81;21901;-56
2021/06/28 10:01:52;;;;;;;11.22;7.37;;;;;;;27.66;54.59;100198.07;1684326;84;21877;-56
2021/06/28 10:08:06;;;;;;;9.50;5.90;;;;;;;27.61;55.17;100205.98;1690854;83;21413;-55
2021/06/28 10:11:33;;;;;;;10.15;5.97;;;;;;;27.58;54.46;100202.91;1690947;85;21263;-57
2021/06/28 10:14:39;;;;;;;19.17;9.78;;;;;;;27.52;54.03;100186.65;1685427;84;21227;-56
2021/06/28 10:17:45;;;;;;;10.93;7.45;;;;;;;27.64;54.74;100203.99;1709693;83;21234;-55
2021/06/28 10:20:51;;;;;;;8.75;6.80;;;;;;;27.75;53.78;100199.97;1718625;82;21377;-56
2021/06/28 10:23:57;;;;;;;10.40;7.20;;;;;;;27.95;53.73;100209.42;1711721;81;21449;-56
2021/06/28 10:27:05;;;;;;;9.13;6.00;;;;;;;28.13;53.02;100203.09;1680731;85;21331;-55
2021/06/28 10:30:14;;;;;;;6.05;5.42;;;;;;;28.29;53.08;100207.45;1684182;82;22154;-57
2021/06/28 10:33:23;;;;;;;8.15;6.08;;;;;;;28.43;52.52;100206.42;1648617;87;21235;-56
2021/06/28 10:36:29;;;;;;;6.10;5.28;;;;;;;28.69;52.31;100217.73;1659790;86;21426;-56
2021/06/28 10:39:38;;;;;;;9.65;6.60;;;;;;;28.86;51.54;100211.64;1674104;85;21212;-56
2021/06/28 10:42:54;;;;;;;7.55;5.62;;;;;;;28.91;51.31;100214.38;1689192;85;21194;-55
2021/06/28 10:45:59;;;;;;;6.12;5.30;;;;;;;28.95;50.65;100209.27;1680259;85;21741;-55
2021/06/28 10:49:05;;;;;;;7.65;5.22;;;;;;;29.06;49.97;100210.86;1680057;85;21224;-57
2021/06/28 10:52:12;;;;;;;7.37;5.60;;;;;;;29.12;49.92;100207.38;1680311;85;21287;-57
2021/06/28 10:55:37;;;;;;;5.85;4.95;;;;;;;29.10;50.11;100236.45;1680317;85;21295;-57
2021/06/28 10:58:44;;;;;;;6.78;5.45;;;;;;;28.96;49.55;100228.41;1678322;85;21259;-56
2021/06/28 11:02:08;;;;;;;5.40;4.65;;;;;;;29.00;49.26;100226.69;1681388;84;21185;-57
2021/06/28 11:05:17;;;;;;;7.40;5.10;;;;;;;29.11;49.50;100230.50;1678736;85;21231;-56
2021/06/28 11:08:29;;;;;;;5.78;5.25;;;;;;;28.99;49.27;100222.17;1664721;85;21262;-55
2021/06/28 11:11:55;;;;;;;6.37;4.97;;;;;;;29.01;49.43;100215.11;1697719;82;21890;-55
2021/06/28 11:15:31;;;;;;;6.70;5.33;;;;;;;29.07;49.72;100228.03;1625248;87;21837;-55
2021/06/28 11:18:38;;;;;;;8.68;5.78;;;;;;;29.00;50.15;100216.83;1664273;85;21783;-56
2021/06/28 11:21:48;;;;;;;8.18;5.72;;;;;;;28.92;50.27;100218.89;1703995;84;21313;-54
2021/06/28 11:25:08;;;;;;;7.20;5.62;;;;;;;28.81;50.81;100213.11;1700017;81;21252;-55
2021/06/28 11:28:20;;;;;;;8.75;5.42;;;;;;;28.76;50.93;100220.20;1725735;83;21405;-56
2021/06/28 11:31:35;;;;;;;8.50;5.45;;;;;;;28.46;51.64;100222.76;1718390;83;21275;-55
2021/06/28 11:34:50;;;;;;;7.47;4.70;;;;;;;28.16;52.31;100232.05;1718089;83;21740;-56
2021/06/28 11:38:25;;;;;;;7.65;4.70;;;;;;;27.96;52.37;100233.61;1687631;84;21710;-56
2021/06/28 11:41:31;;;;;;;7.80;5.08;;;;;;;27.94;53.11;100219.83;1717917;83;21219;-57
2021/06/28 11:44:40;;;;;;;6.28;4.30;;;;;;;28.09;51.81;100224.50;1661387;86;21770;-57
2021/06/28 11:47:58;;;;;;;8.15;4.55;;;;;;;28.27;50.88;100236.45;1662510;86;21223;-57
2021/06/28 11:51:04;;;;;;;5.67;4.25;;;;;;;28.36;50.82;100228.48;1701654;81;21215;-57
2021/06/28 11:54:11;;;;;;;8.08;4.78;;;;;;;28.45;51.03;100235.14;1646892;86;21208;-57
2021/06/28 11:57:17;;;;;;;5.67;4.62;;;;;;;28.56;51.08;100241.57;1673240;83;21215;-57
2021/06/28 12:00:24;;;;;;;19.82;5.47;;;;;;;28.63;50.44;100238.67;1706143;81;21246;-54
2021/06/28 12:03:29;;;;;;;5.62;4.45;;;;;;;28.59;50.85;100232.52;1702037;83;21342;-56
2021/06/28 12:06:41;;;;;;;8.05;4.95;;;;;;;28.75;50.40;100221.33;1689535;85;21804;-55
2021/06/28 12:09:49;;;;;;;6.03;5.35;;;;;;;28.93;50.53;100233.25;1718065;83;21204;-55
2021/06/28 12:13:04;;;;;;;4.90;4.25;;;;;;;28.99;49.89;100237.68;1688506;83;21189;-57
2021/06/28 12:16:29;;;;;;;7.65;4.20;;;;;;;28.78;50.10;100234.26;1687581;84;21798;-55
2021/06/28 12:19:39;;;;;;;6.05;4.78;;;;;;;28.59;50.34;100229.70;1657302;86;21195;-55
2021/06/28 12:22:47;;;;;;;6.58;5.10;;;;;;;28.43;50.81;100235.19;1660526;86;21208;-56
2021/06/28 12:25:55;;;;;;;6.35;4.95;;;;;;;28.37;51.22;100227.34;1667858;83;21295;-54
2021/06/28 12:29:02;;;;;;;8.10;4.87;;;;;;;28.41;51.37;100231.25;1675652;85;21395;-56
2021/06/28 12:32:15;;;;;;;6.10;4.60;;;;;;;28.40;51.75;100224.52;1675453;85;21212;-55
2021/06/28 12:35:33;;;;;;;8.20;4.30;;;;;;;28.31;51.30;100221.48;1675581;85;21616;-55
2021/06/28 12:38:38;;;;;;;6.90;4.30;;;;;;;28.27;51.60;100229.42;1674960;85;21217;-55
2021/06/28 12:41:44;;;;;;;7.03;4.47;;;;;;;28.32;52.05;100219.52;1675220;85;21773;-55
2021/06/28 12:44:50;;;;;;;6.55;5.10;;;;;;;28.27;52.29;100218.16;1675078;85;21208;-55
2021/06/28 12:48:01;;;;;;;5.15;4.62;;;;;;;28.20;52.30;100231.72;1675297;85;21284;-54
2021/06/28 12:51:09;;;;;;;7.37;4.55;;;;;;;28.13;52.59;100215.16;1675724;85;21409;-54
2021/06/28 12:54:33;;;;;;;5.12;4.55;;;;;;;28.18;52.78;100218.53;1675786;85;21417;-55
2021/06/28 12:57:42;;;;;;;5.60;4.62;;;;;;;28.17;52.35;100226.68;1675530;85;21730;-55
2021/06/28 13:00:57;;;;;;;6.08;4.30;;;;;;;28.02;52.72;100212.75;1675354;85;21220;-57
2021/06/28 13:04:27;;;;;;;6.53;4.30;;;;;;;27.95;52.83;100224.90;1689653;85;21360;-57
2021/06/28 13:07:32;;;;;;;6.35;4.28;;;;;;;27.88;53.07;100213.13;1680836;85;21871;-56
2021/06/28 13:10:38;;;;;;;5.22;4.50;;;;;;;27.89;53.00;100219.05;1680457;85;21263;-56
2021/06/28 13:14:11;;;;;;;8.10;3.95;;;;;;;27.82;52.93;100225.82;1680488;85;21220;-57
2021/06/28 13:17:29;;;;;;;5.25;3.70;;;;;;;27.77;52.23;100220.22;1680675;85;21220;-56
2021/06/28 13:20:36;;;;;;;4.67;3.75;;;;;;;27.74;51.82;100215.19;1653191;87;21269;-56
2021/06/28 13:23:44;;;;;;;6.60;4.55;;;;;;;27.73;52.05;100216.30;1652727;87;21324;-55
2021/06/28 13:26:49;;;;;;;4.58;3.45;;;;;;;27.81;52.31;100222.71;1664309;82;21629;-55
2021/06/28 13:29:58;;;;;;;3.50;3.05;;;;;;;27.93;52.26;100224.34;1651177;86;21830;-55
2021/06/28 13:33:21;;;;;;;4.80;3.62;;;;;;;28.05;52.14;100228.46;1651034;87;21231;-57
2021/06/28 13:36:29;;;;;;;4.05;3.65;;;;;;;28.19;51.58;100225.83;1651016;87;21748;-56
2021/06/28 13:40:04;;;;;;;4.72;3.75;;;;;;;28.32;50.48;100222.34;1651081;87;21231;-55
2021/06/28 13:43:12;;;;;;;6.33;4.42;;;;;;;28.33;50.42;100225.41;1650643;87;21767;-55
2021/06/28 13:46:35;;;;;;;5.40;3.42;;;;;;;28.20;50.82;100221.86;1650877;87;21349;-55
2021/06/28 13:49:50;;;;;;;4.90;3.87;;;;;;;28.04;50.12;100237.20;1650977;86;21394;-55
2021/06/28 13:52:55;;;;;;;4.37;3.77;;;;;;;27.93;50.86;100237.02;1651133;87;21225;-55
2021/06/28 13:56:08;;;;;;;5.03;3.40;;;;;;;27.92;50.93;100237.59;1650743;87;21426;-55
2021/06/28 13:59:12;;;;;;;4.78;3.92;;;;;;;27.85;51.70;100226.64;1673296;85;21302;-55
2021/06/28 14:02:16;;;;;;;5.25;3.30;;;;;;;27.86;51.73;100233.94;1673910;85;21797;-56
2021/06/28 14:05:22;;;;;;;5.75;3.75;;;;;;;27.91;51.21;100228.86;1684666;85;21256;-55
2021/06/28 14:08:29;;;;;;;4.65;3.65;;;;;;;27.91;50.99;100222.41;1684696;85;21209;-55
2021/06/28 14:11:34;;;;;;;6.08;3.80;;;;;;;27.91;51.12;100219.59;1682159;85;21239;-54
2021/06/28 14:14:43;;;;;;;4.58;4.10;;;;;;;27.86;50.90;100220.42;1683644;85;21216;-54
2021/06/28 14:17:52;;;;;;;5.40;4.08;;;;;;;27.78;51.43;100217.67;1684117;85;21192;-55
2021/06/28 14:21:02;;;;;;;4.05;3.65;;;;;;;27.67;51.64;100220.28;1717554;83;21326;-55
2021/06/28 14:24:09;;;;;;;6.35;3.87;;;;;;;27.62;52.04;100222.31;1685334;85;21414;-54
2021/06/28 14:27:15;;;;;;;4.55;4.05;;;;;;;27.67;52.50;100223.09;1685369;82;21311;-56